Alyeska Resort
Max's Hourly Weather Roundup
ALYESKA_MAX 4/20/2014
Click Here for Graph

        DATE  TIME   Air  Wind  Wind  Wind  BATT   Rel
                    Temp   Spd   Dir  Gust  Volt  Hum%
                      F   MPH   AVG   MPH   AVG   AVG

   4/20/2014 07:00    35    10    35    15 12.82    47
   4/20/2014 06:00    34     9    61    17 12.82    49
   4/20/2014 05:00    34     5   157    15 12.84    49
   4/20/2014 04:00    34     4    69    10 12.85    47
   4/20/2014 03:00    34     5    58    10 12.87    48
   4/20/2014 02:00    35     3   145     8 12.90    45
   4/20/2014 01:00    35     7   169    10 12.92    53
   4/19/2014 24:00    34     5   258     8 12.96    59
   4/19/2014 23:00    34     3           5 13.04    64
   4/19/2014 22:00    34     3    83     6 13.19    57
   4/19/2014 21:00    35     4   266     6 13.83    57
   4/19/2014 20:00    35     5   287    10 13.82    59
   4/19/2014 19:00    36     6   219    10 13.78    54
   4/19/2014 18:00    36     4   192    10 13.75    55
   4/19/2014 17:00    37     5   172    14 13.81    49
   4/19/2014 16:00    38     2   153     9 13.79    50
   4/19/2014 15:00    34     3   195     6 13.76    55
   4/19/2014 14:00    32     4    57     9 13.72    59
   4/19/2014 13:00    31     4   185    11 13.61    59
   4/19/2014 12:00    30     5   166     7 13.63    51
   4/19/2014 11:00    30     4   116    10 13.66    55
   4/19/2014 10:00    30     2   160     5 13.64    57
   4/19/2014 09:00    29     6    43    11 13.65    54
   4/19/2014 08:00    28     8    40    15 13.39    62


Click Here for Graph